sensor_id;sensor_type;location;lat;lon;timestamp;P1;durP1;ratioP1;P2;durP2;ratioP2
73168;SDS011;61379;59.732;30.468;2022-12-29T00:01:23;7.97;;;7.28;;
73168;SDS011;61379;59.732;30.468;2022-12-29T00:03:50;8.30;;;7.80;;
73168;SDS011;61379;59.732;30.468;2022-12-29T00:06:18;8.40;;;7.75;;
73168;SDS011;61379;59.732;30.468;2022-12-29T00:08:45;8.55;;;7.82;;
73168;SDS011;61379;59.732;30.468;2022-12-29T00:11:12;11.77;;;7.82;;
73168;SDS011;61379;59.732;30.468;2022-12-29T00:13:39;8.70;;;7.90;;
73168;SDS011;61379;59.732;30.468;2022-12-29T00:16:23;7.95;;;7.40;;
73168;SDS011;61379;59.732;30.468;2022-12-29T00:18:50;8.27;;;7.68;;
73168;SDS011;61379;59.732;30.468;2022-12-29T00:21:19;7.88;;;7.28;;
73168;SDS011;61379;59.732;30.468;2022-12-29T00:24:04;8.68;;;7.97;;
73168;SDS011;61379;59.732;30.468;2022-12-29T00:26:47;8.07;;;7.53;;
73168;SDS011;61379;59.732;30.468;2022-12-29T00:29:32;7.70;;;7.20;;
73168;SDS011;61379;59.732;30.468;2022-12-29T00:32:15;8.15;;;7.53;;
73168;SDS011;61379;59.732;30.468;2022-12-29T00:35:00;7.68;;;7.07;;
73168;SDS011;61379;59.732;30.468;2022-12-29T00:37:37;8.57;;;7.88;;
73168;SDS011;61379;59.732;30.468;2022-12-29T00:40:24;8.13;;;7.63;;
73168;SDS011;61379;59.732;30.468;2022-12-29T00:43:08;8.95;;;8.15;;
73168;SDS011;61379;59.732;30.468;2022-12-29T00:45:52;8.77;;;7.85;;
73168;SDS011;61379;59.732;30.468;2022-12-29T00:48:18;8.00;;;7.13;;
73168;SDS011;61379;59.732;30.468;2022-12-29T00:51:05;8.80;;;7.90;;
73168;SDS011;61379;59.732;30.468;2022-12-29T00:53:32;7.18;;;6.65;;
73168;SDS011;61379;59.732;30.468;2022-12-29T00:55:59;8.70;;;7.63;;
73168;SDS011;61379;59.732;30.468;2022-12-29T00:58:26;8.32;;;7.72;;
73168;SDS011;61379;59.732;30.468;2022-12-29T01:01:00;8.82;;;7.75;;
73168;SDS011;61379;59.732;30.468;2022-12-29T01:03:27;9.85;;;7.03;;
73168;SDS011;61379;59.732;30.468;2022-12-29T01:05:53;7.65;;;6.95;;
73168;SDS011;61379;59.732;30.468;2022-12-29T01:08:20;7.63;;;7.00;;
73168;SDS011;61379;59.732;30.468;2022-12-29T01:10:53;7.60;;;7.15;;
73168;SDS011;61379;59.732;30.468;2022-12-29T01:13:22;8.95;;;7.55;;
73168;SDS011;61379;59.732;30.468;2022-12-29T01:15:49;7.85;;;7.15;;
73168;SDS011;61379;59.732;30.468;2022-12-29T01:18:16;7.38;;;6.97;;
73168;SDS011;61379;59.732;30.468;2022-12-29T01:20:43;7.47;;;6.88;;
73168;SDS011;61379;59.732;30.468;2022-12-29T01:23:09;7.50;;;6.65;;
73168;SDS011;61379;59.732;30.468;2022-12-29T01:25:36;7.72;;;7.07;;
73168;SDS011;61379;59.732;30.468;2022-12-29T01:28:04;7.53;;;7.03;;
73168;SDS011;61379;59.732;30.468;2022-12-29T01:30:32;7.80;;;7.30;;
73168;SDS011;61379;59.732;30.468;2022-12-29T01:32:58;8.05;;;7.38;;
73168;SDS011;61379;59.732;30.468;2022-12-29T01:35:25;8.02;;;7.38;;
73168;SDS011;61379;59.732;30.468;2022-12-29T01:37:52;8.65;;;7.88;;
73168;SDS011;61379;59.732;30.468;2022-12-29T01:40:18;8.10;;;7.35;;
73168;SDS011;61379;59.732;30.468;2022-12-29T01:42:45;7.88;;;7.38;;
73168;SDS011;61379;59.732;30.468;2022-12-29T01:45:14;7.70;;;7.10;;
73168;SDS011;61379;59.732;30.468;2022-12-29T01:47:41;8.10;;;7.50;;
73168;SDS011;61379;59.732;30.468;2022-12-29T01:50:10;8.52;;;7.80;;
73168;SDS011;61379;59.732;30.468;2022-12-29T01:52:38;8.20;;;7.40;;
73168;SDS011;61379;59.732;30.468;2022-12-29T01:55:07;7.68;;;7.18;;
73168;SDS011;61379;59.732;30.468;2022-12-29T01:57:37;8.13;;;7.53;;
73168;SDS011;61379;59.732;30.468;2022-12-29T02:00:05;7.97;;;7.38;;
73168;SDS011;61379;59.732;30.468;2022-12-29T02:02:35;8.23;;;7.53;;
73168;SDS011;61379;59.732;30.468;2022-12-29T02:05:03;8.25;;;7.68;;
73168;SDS011;61379;59.732;30.468;2022-12-29T02:07:31;8.15;;;7.65;;
73168;SDS011;61379;59.732;30.468;2022-12-29T02:09:57;8.50;;;7.93;;
73168;SDS011;61379;59.732;30.468;2022-12-29T02:12:25;8.40;;;7.75;;
73168;SDS011;61379;59.732;30.468;2022-12-29T02:14:53;7.95;;;7.35;;
73168;SDS011;61379;59.732;30.468;2022-12-29T02:19:55;8.10;;;7.60;;
73168;SDS011;61379;59.732;30.468;2022-12-29T02:22:26;8.00;;;7.40;;
73168;SDS011;61379;59.732;30.468;2022-12-29T02:25:01;8.80;;;7.72;;
73168;SDS011;61379;59.732;30.468;2022-12-29T02:27:52;7.68;;;7.10;;
73168;SDS011;61379;59.732;30.468;2022-12-29T02:33:10;6.93;;;6.47;;
73168;SDS011;61379;59.732;30.468;2022-12-29T02:35:42;7.95;;;6.95;;
73168;SDS011;61379;59.732;30.468;2022-12-29T02:38:12;8.15;;;7.32;;
73168;SDS011;61379;59.732;30.468;2022-12-29T02:40:41;7.30;;;6.70;;
73168;SDS011;61379;59.732;30.468;2022-12-29T02:43:12;7.45;;;6.95;;
73168;SDS011;61379;59.732;30.468;2022-12-29T02:45:43;7.30;;;6.75;;
73168;SDS011;61379;59.732;30.468;2022-12-29T02:48:16;7.25;;;6.75;;
73168;SDS011;61379;59.732;30.468;2022-12-29T02:50:47;8.18;;;7.47;;
73168;SDS011;61379;59.732;30.468;2022-12-29T02:53:17;7.43;;;6.90;;
73168;SDS011;61379;59.732;30.468;2022-12-29T02:56:05;7.05;;;6.55;;
73168;SDS011;61379;59.732;30.468;2022-12-29T02:58:31;7.50;;;6.95;;
73168;SDS011;61379;59.732;30.468;2022-12-29T03:01:03;8.30;;;7.28;;
73168;SDS011;61379;59.732;30.468;2022-12-29T03:03:37;9.70;;;7.97;;
73168;SDS011;61379;59.732;30.468;2022-12-29T03:06:19;8.55;;;7.38;;
73168;SDS011;61379;59.732;30.468;2022-12-29T03:08:49;7.60;;;7.00;;
73168;SDS011;61379;59.732;30.468;2022-12-29T03:11:19;7.43;;;6.82;;
73168;SDS011;61379;59.732;30.468;2022-12-29T03:14:05;7.53;;;6.93;;
73168;SDS011;61379;59.732;30.468;2022-12-29T03:16:53;7.07;;;6.55;;
73168;SDS011;61379;59.732;30.468;2022-12-29T03:19:23;7.32;;;6.75;;
73168;SDS011;61379;59.732;30.468;2022-12-29T03:21:52;7.10;;;6.50;;
73168;SDS011;61379;59.732;30.468;2022-12-29T03:24:39;7.13;;;6.60;;
73168;SDS011;61379;59.732;30.468;2022-12-29T03:27:07;7.72;;;6.93;;
73168;SDS011;61379;59.732;30.468;2022-12-29T03:29:36;7.35;;;6.82;;
73168;SDS011;61379;59.732;30.468;2022-12-29T03:34:33;8.50;;;7.57;;
73168;SDS011;61379;59.732;30.468;2022-12-29T03:37:02;7.85;;;7.15;;
73168;SDS011;61379;59.732;30.468;2022-12-29T03:39:31;7.88;;;7.13;;
73168;SDS011;61379;59.732;30.468;2022-12-29T03:41:59;7.50;;;6.80;;
73168;SDS011;61379;59.732;30.468;2022-12-29T03:44:31;6.85;;;6.45;;
73168;SDS011;61379;59.732;30.468;2022-12-29T03:46:58;6.22;;;5.82;;
73168;SDS011;61379;59.732;30.468;2022-12-29T03:49:25;6.47;;;5.88;;
73168;SDS011;61379;59.732;30.468;2022-12-29T03:51:53;6.38;;;5.90;;
73168;SDS011;61379;59.732;30.468;2022-12-29T03:54:20;7.22;;;6.65;;
73168;SDS011;61379;59.732;30.468;2022-12-29T03:56:47;9.48;;;7.00;;
73168;SDS011;61379;59.732;30.468;2022-12-29T03:59:14;9.23;;;7.25;;
73168;SDS011;61379;59.732;30.468;2022-12-29T04:01:41;6.43;;;5.90;;
73168;SDS011;61379;59.732;30.468;2022-12-29T04:04:08;6.93;;;6.43;;
73168;SDS011;61379;59.732;30.468;2022-12-29T04:06:34;8.45;;;6.68;;
73168;SDS011;61379;59.732;30.468;2022-12-29T04:09:03;8.23;;;7.45;;
73168;SDS011;61379;59.732;30.468;2022-12-29T04:11:29;7.93;;;7.30;;
73168;SDS011;61379;59.732;30.468;2022-12-29T04:13:56;7.30;;;6.90;;
73168;SDS011;61379;59.732;30.468;2022-12-29T04:16:23;8.23;;;7.50;;
73168;SDS011;61379;59.732;30.468;2022-12-29T04:18:49;7.07;;;6.57;;
73168;SDS011;61379;59.732;30.468;2022-12-29T04:21:16;7.93;;;7.20;;
73168;SDS011;61379;59.732;30.468;2022-12-29T04:23:43;7.78;;;6.75;;
73168;SDS011;61379;59.732;30.468;2022-12-29T04:26:11;7.43;;;6.78;;
73168;SDS011;61379;59.732;30.468;2022-12-29T04:28:38;7.60;;;6.90;;
73168;SDS011;61379;59.732;30.468;2022-12-29T04:31:05;8.15;;;7.60;;
73168;SDS011;61379;59.732;30.468;2022-12-29T04:33:31;7.10;;;6.70;;
73168;SDS011;61379;59.732;30.468;2022-12-29T04:35:58;7.20;;;6.57;;
73168;SDS011;61379;59.732;30.468;2022-12-29T04:38:25;8.20;;;7.65;;
73168;SDS011;61379;59.732;30.468;2022-12-29T04:40:51;8.15;;;7.47;;
73168;SDS011;61379;59.732;30.468;2022-12-29T04:43:19;7.60;;;6.90;;
73168;SDS011;61379;59.732;30.468;2022-12-29T04:45:47;7.80;;;7.10;;
73168;SDS011;61379;59.732;30.468;2022-12-29T04:48:14;8.20;;;7.50;;
73168;SDS011;61379;59.732;30.468;2022-12-29T04:50:41;8.35;;;7.55;;
73168;SDS011;61379;59.732;30.468;2022-12-29T04:53:08;9.07;;;7.82;;
73168;SDS011;61379;59.732;30.468;2022-12-29T04:55:34;7.57;;;6.85;;
73168;SDS011;61379;59.732;30.468;2022-12-29T04:58:01;9.13;;;7.93;;
73168;SDS011;61379;59.732;30.468;2022-12-29T05:00:29;7.60;;;6.95;;
73168;SDS011;61379;59.732;30.468;2022-12-29T05:02:56;9.07;;;7.45;;
73168;SDS011;61379;59.732;30.468;2022-12-29T05:05:23;7.70;;;7.05;;
73168;SDS011;61379;59.732;30.468;2022-12-29T05:07:49;6.80;;;6.30;;
73168;SDS011;61379;59.732;30.468;2022-12-29T05:10:16;7.43;;;6.72;;
73168;SDS011;61379;59.732;30.468;2022-12-29T05:12:43;7.13;;;6.60;;
73168;SDS011;61379;59.732;30.468;2022-12-29T05:15:10;7.45;;;6.85;;
73168;SDS011;61379;59.732;30.468;2022-12-29T05:17:38;7.30;;;6.70;;
73168;SDS011;61379;59.732;30.468;2022-12-29T05:20:06;7.10;;;6.45;;
73168;SDS011;61379;59.732;30.468;2022-12-29T05:22:33;7.28;;;6.25;;
73168;SDS011;61379;59.732;30.468;2022-12-29T05:24:59;6.68;;;6.05;;
73168;SDS011;61379;59.732;30.468;2022-12-29T05:27:28;7.05;;;6.43;;
73168;SDS011;61379;59.732;30.468;2022-12-29T05:29:55;6.93;;;6.38;;
73168;SDS011;61379;59.732;30.468;2022-12-29T05:32:21;6.50;;;6.03;;
73168;SDS011;61379;59.732;30.468;2022-12-29T05:34:49;6.30;;;5.53;;
73168;SDS011;61379;59.732;30.468;2022-12-29T05:37:16;7.95;;;6.35;;
73168;SDS011;61379;59.732;30.468;2022-12-29T05:39:43;7.30;;;6.70;;
73168;SDS011;61379;59.732;30.468;2022-12-29T05:42:10;6.80;;;6.30;;
73168;SDS011;61379;59.732;30.468;2022-12-29T05:44:36;6.82;;;6.32;;
73168;SDS011;61379;59.732;30.468;2022-12-29T05:47:03;6.45;;;6.03;;
73168;SDS011;61379;59.732;30.468;2022-12-29T05:49:30;7.03;;;6.53;;
73168;SDS011;61379;59.732;30.468;2022-12-29T05:51:58;6.65;;;5.95;;
73168;SDS011;61379;59.732;30.468;2022-12-29T05:54:24;6.35;;;5.75;;
73168;SDS011;61379;59.732;30.468;2022-12-29T05:56:51;6.70;;;6.10;;
73168;SDS011;61379;59.732;30.468;2022-12-29T05:59:18;6.68;;;5.65;;
73168;SDS011;61379;59.732;30.468;2022-12-29T06:01:44;7.60;;;6.25;;
73168;SDS011;61379;59.732;30.468;2022-12-29T06:04:11;7.35;;;6.28;;
73168;SDS011;61379;59.732;30.468;2022-12-29T06:06:38;6.70;;;6.15;;
73168;SDS011;61379;59.732;30.468;2022-12-29T06:09:09;7.05;;;6.35;;
73168;SDS011;61379;59.732;30.468;2022-12-29T06:11:35;6.88;;;6.32;;
73168;SDS011;61379;59.732;30.468;2022-12-29T06:14:02;6.80;;;6.30;;
73168;SDS011;61379;59.732;30.468;2022-12-29T06:16:29;7.03;;;6.53;;
73168;SDS011;61379;59.732;30.468;2022-12-29T06:18:56;6.57;;;5.97;;
73168;SDS011;61379;59.732;30.468;2022-12-29T06:21:22;7.45;;;6.78;;
73168;SDS011;61379;59.732;30.468;2022-12-29T06:23:49;6.82;;;6.13;;
73168;SDS011;61379;59.732;30.468;2022-12-29T06:26:17;7.07;;;6.40;;
73168;SDS011;61379;59.732;30.468;2022-12-29T06:28:44;9.85;;;6.30;;
73168;SDS011;61379;59.732;30.468;2022-12-29T06:31:10;6.68;;;6.15;;
73168;SDS011;61379;59.732;30.468;2022-12-29T06:33:37;6.20;;;5.78;;
73168;SDS011;61379;59.732;30.468;2022-12-29T06:36:04;7.80;;;7.05;;
73168;SDS011;61379;59.732;30.468;2022-12-29T06:38:31;8.15;;;6.82;;
73168;SDS011;61379;59.732;30.468;2022-12-29T06:40:58;7.50;;;6.80;;
73168;SDS011;61379;59.732;30.468;2022-12-29T06:43:26;6.65;;;6.07;;
73168;SDS011;61379;59.732;30.468;2022-12-29T06:45:52;8.25;;;6.55;;
73168;SDS011;61379;59.732;30.468;2022-12-29T06:48:19;7.55;;;6.60;;
73168;SDS011;61379;59.732;30.468;2022-12-29T06:50:46;9.32;;;7.07;;
73168;SDS011;61379;59.732;30.468;2022-12-29T06:53:12;8.55;;;7.10;;
73168;SDS011;61379;59.732;30.468;2022-12-29T06:55:39;8.38;;;7.63;;
73168;SDS011;61379;59.732;30.468;2022-12-29T06:58:07;8.55;;;7.80;;
73168;SDS011;61379;59.732;30.468;2022-12-29T07:00:36;7.97;;;7.38;;
73168;SDS011;61379;59.732;30.468;2022-12-29T07:03:03;8.25;;;7.53;;
73168;SDS011;61379;59.732;30.468;2022-12-29T07:05:30;8.27;;;7.53;;
73168;SDS011;61379;59.732;30.468;2022-12-29T07:07:57;8.02;;;7.28;;
73168;SDS011;61379;59.732;30.468;2022-12-29T07:10:25;12.82;;;8.45;;
73168;SDS011;61379;59.732;30.468;2022-12-29T07:12:51;8.32;;;7.45;;
73168;SDS011;61379;59.732;30.468;2022-12-29T07:15:18;7.47;;;6.78;;
73168;SDS011;61379;59.732;30.468;2022-12-29T07:17:46;7.90;;;7.05;;
73168;SDS011;61379;59.732;30.468;2022-12-29T07:20:14;7.97;;;6.90;;
73168;SDS011;61379;59.732;30.468;2022-12-29T07:22:41;6.90;;;6.32;;
73168;SDS011;61379;59.732;30.468;2022-12-29T07:25:08;8.05;;;6.88;;
73168;SDS011;61379;59.732;30.468;2022-12-29T07:27:35;13.32;;;7.38;;
73168;SDS011;61379;59.732;30.468;2022-12-29T07:30:02;15.55;;;8.27;;
73168;SDS011;61379;59.732;30.468;2022-12-29T07:32:31;8.88;;;8.07;;
73168;SDS011;61379;59.732;30.468;2022-12-29T07:35:00;11.70;;;7.43;;
73168;SDS011;61379;59.732;30.468;2022-12-29T07:37:27;10.05;;;7.93;;
73168;SDS011;61379;59.732;30.468;2022-12-29T07:39:53;12.63;;;8.85;;
73168;SDS011;61379;59.732;30.468;2022-12-29T07:42:20;9.02;;;8.13;;
73168;SDS011;61379;59.732;30.468;2022-12-29T07:44:47;8.23;;;7.43;;
73168;SDS011;61379;59.732;30.468;2022-12-29T07:47:13;8.65;;;7.55;;
73168;SDS011;61379;59.732;30.468;2022-12-29T07:49:40;7.68;;;7.03;;
73168;SDS011;61379;59.732;30.468;2022-12-29T07:52:08;8.45;;;7.50;;
73168;SDS011;61379;59.732;30.468;2022-12-29T07:54:35;8.85;;;7.93;;
73168;SDS011;61379;59.732;30.468;2022-12-29T07:57:01;10.13;;;8.55;;
73168;SDS011;61379;59.732;30.468;2022-12-29T07:59:28;9.57;;;8.40;;
73168;SDS011;61379;59.732;30.468;2022-12-29T08:01:55;7.78;;;7.03;;
73168;SDS011;61379;59.732;30.468;2022-12-29T08:04:22;8.98;;;7.20;;
73168;SDS011;61379;59.732;30.468;2022-12-29T08:06:48;9.73;;;7.93;;
73168;SDS011;61379;59.732;30.468;2022-12-29T08:09:17;9.15;;;7.15;;
73168;SDS011;61379;59.732;30.468;2022-12-29T08:11:43;9.43;;;8.57;;
73168;SDS011;61379;59.732;30.468;2022-12-29T08:14:10;8.27;;;7.57;;
73168;SDS011;61379;59.732;30.468;2022-12-29T08:16:37;10.30;;;7.38;;
73168;SDS011;61379;59.732;30.468;2022-12-29T08:19:04;7.70;;;7.00;;
73168;SDS011;61379;59.732;30.468;2022-12-29T08:21:31;6.60;;;6.05;;
73168;SDS011;61379;59.732;30.468;2022-12-29T08:23:58;7.75;;;7.05;;
73168;SDS011;61379;59.732;30.468;2022-12-29T08:26:26;7.28;;;6.78;;
73168;SDS011;61379;59.732;30.468;2022-12-29T08:28:53;7.43;;;6.82;;
73168;SDS011;61379;59.732;30.468;2022-12-29T08:31:20;7.32;;;6.82;;
73168;SDS011;61379;59.732;30.468;2022-12-29T08:33:47;7.78;;;7.07;;
73168;SDS011;61379;59.732;30.468;2022-12-29T08:36:14;7.07;;;6.55;;
73168;SDS011;61379;59.732;30.468;2022-12-29T08:38:41;7.38;;;6.78;;
73168;SDS011;61379;59.732;30.468;2022-12-29T08:41:07;7.47;;;6.78;;
73168;SDS011;61379;59.732;30.468;2022-12-29T08:43:35;8.52;;;7.85;;
73168;SDS011;61379;59.732;30.468;2022-12-29T08:46:02;8.50;;;7.75;;
73168;SDS011;61379;59.732;30.468;2022-12-29T08:48:29;9.75;;;7.88;;
73168;SDS011;61379;59.732;30.468;2022-12-29T08:50:56;8.10;;;7.50;;
73168;SDS011;61379;59.732;30.468;2022-12-29T08:53:22;8.15;;;7.45;;
73168;SDS011;61379;59.732;30.468;2022-12-29T08:55:54;8.75;;;8.15;;
73168;SDS011;61379;59.732;30.468;2022-12-29T08:58:21;8.60;;;7.88;;
73168;SDS011;61379;59.732;30.468;2022-12-29T09:00:51;7.82;;;7.22;;
73168;SDS011;61379;59.732;30.468;2022-12-29T09:03:18;8.52;;;7.90;;
73168;SDS011;61379;59.732;30.468;2022-12-29T09:05:47;8.63;;;7.93;;
73168;SDS011;61379;59.732;30.468;2022-12-29T09:08:13;9.77;;;8.32;;
73168;SDS011;61379;59.732;30.468;2022-12-29T09:10:40;9.10;;;8.20;;
73168;SDS011;61379;59.732;30.468;2022-12-29T09:13:07;8.48;;;7.82;;
73168;SDS011;61379;59.732;30.468;2022-12-29T09:15:34;14.75;;;8.35;;
73168;SDS011;61379;59.732;30.468;2022-12-29T09:18:02;9.10;;;8.23;;
73168;SDS011;61379;59.732;30.468;2022-12-29T09:20:29;9.82;;;7.95;;
73168;SDS011;61379;59.732;30.468;2022-12-29T09:22:55;11.18;;;8.77;;
73168;SDS011;61379;59.732;30.468;2022-12-29T09:25:22;11.52;;;8.73;;
73168;SDS011;61379;59.732;30.468;2022-12-29T09:27:49;10.65;;;8.30;;
73168;SDS011;61379;59.732;30.468;2022-12-29T09:30:17;9.95;;;8.80;;
73168;SDS011;61379;59.732;30.468;2022-12-29T09:32:44;9.57;;;8.38;;
73168;SDS011;61379;59.732;30.468;2022-12-29T09:35:12;10.45;;;9.38;;
73168;SDS011;61379;59.732;30.468;2022-12-29T09:37:39;13.70;;;9.20;;
73168;SDS011;61379;59.732;30.468;2022-12-29T09:40:06;11.18;;;7.93;;
73168;SDS011;61379;59.732;30.468;2022-12-29T09:42:35;9.70;;;8.20;;
73168;SDS011;61379;59.732;30.468;2022-12-29T09:45:07;12.38;;;9.10;;
73168;SDS011;61379;59.732;30.468;2022-12-29T09:47:36;9.05;;;7.72;;
73168;SDS011;61379;59.732;30.468;2022-12-29T09:50:04;12.13;;;9.20;;
73168;SDS011;61379;59.732;30.468;2022-12-29T09:52:37;12.75;;;8.73;;
73168;SDS011;61379;59.732;30.468;2022-12-29T09:55:09;11.82;;;8.75;;
73168;SDS011;61379;59.732;30.468;2022-12-29T09:57:37;10.63;;;9.15;;
73168;SDS011;61379;59.732;30.468;2022-12-29T10:00:10;10.32;;;8.35;;
73168;SDS011;61379;59.732;30.468;2022-12-29T10:02:38;11.68;;;8.93;;
73168;SDS011;61379;59.732;30.468;2022-12-29T10:05:13;11.88;;;9.80;;
73168;SDS011;61379;59.732;30.468;2022-12-29T10:07:44;10.02;;;9.00;;
73168;SDS011;61379;59.732;30.468;2022-12-29T10:10:15;12.93;;;9.70;;
73168;SDS011;61379;59.732;30.468;2022-12-29T10:12:50;9.93;;;8.27;;
73168;SDS011;61379;59.732;30.468;2022-12-29T10:15:22;11.32;;;9.23;;
73168;SDS011;61379;59.732;30.468;2022-12-29T10:17:55;12.50;;;9.05;;
73168;SDS011;61379;59.732;30.468;2022-12-29T10:20:28;11.25;;;10.00;;
73168;SDS011;61379;59.732;30.468;2022-12-29T10:23:04;12.98;;;9.32;;
73168;SDS011;61379;59.732;30.468;2022-12-29T10:25:37;14.45;;;9.77;;
73168;SDS011;61379;59.732;30.468;2022-12-29T10:28:05;10.70;;;8.73;;
73168;SDS011;61379;59.732;30.468;2022-12-29T10:30:33;15.02;;;10.20;;
73168;SDS011;61379;59.732;30.468;2022-12-29T10:33:01;12.98;;;9.70;;
73168;SDS011;61379;59.732;30.468;2022-12-29T10:35:30;12.35;;;9.68;;
73168;SDS011;61379;59.732;30.468;2022-12-29T10:37:58;12.98;;;10.88;;
73168;SDS011;61379;59.732;30.468;2022-12-29T10:40:28;12.68;;;9.82;;
73168;SDS011;61379;59.732;30.468;2022-12-29T10:42:57;13.43;;;9.10;;
73168;SDS011;61379;59.732;30.468;2022-12-29T10:45:25;14.50;;;9.73;;
73168;SDS011;61379;59.732;30.468;2022-12-29T10:47:55;10.48;;;9.38;;
73168;SDS011;61379;59.732;30.468;2022-12-29T10:50:24;13.27;;;9.20;;
73168;SDS011;61379;59.732;30.468;2022-12-29T10:52:51;13.00;;;9.02;;
73168;SDS011;61379;59.732;30.468;2022-12-29T10:55:19;13.13;;;9.77;;
73168;SDS011;61379;59.732;30.468;2022-12-29T11:00:17;13.00;;;7.65;;
73168;SDS011;61379;59.732;30.468;2022-12-29T11:05:28;9.07;;;8.05;;
73168;SDS011;61379;59.732;30.468;2022-12-29T11:07:59;9.85;;;8.75;;
73168;SDS011;61379;59.732;30.468;2022-12-29T11:10:34;13.57;;;10.32;;
73168;SDS011;61379;59.732;30.468;2022-12-29T11:13:02;9.60;;;8.70;;
73168;SDS011;61379;59.732;30.468;2022-12-29T11:15:39;13.43;;;10.43;;
73168;SDS011;61379;59.732;30.468;2022-12-29T11:18:08;9.90;;;8.85;;
73168;SDS011;61379;59.732;30.468;2022-12-29T11:20:43;11.32;;;9.65;;
73168;SDS011;61379;59.732;30.468;2022-12-29T11:23:20;14.98;;;11.13;;
73168;SDS011;61379;59.732;30.468;2022-12-29T11:25:50;11.07;;;8.85;;
73168;SDS011;61379;59.732;30.468;2022-12-29T11:28:31;10.80;;;9.50;;
73168;SDS011;61379;59.732;30.468;2022-12-29T11:31:00;11.38;;;9.70;;
73168;SDS011;61379;59.732;30.468;2022-12-29T11:33:27;14.13;;;11.13;;
73168;SDS011;61379;59.732;30.468;2022-12-29T11:35:56;12.82;;;11.07;;
73168;SDS011;61379;59.732;30.468;2022-12-29T11:38:25;11.25;;;9.73;;
73168;SDS011;61379;59.732;30.468;2022-12-29T11:40:52;12.50;;;9.48;;
73168;SDS011;61379;59.732;30.468;2022-12-29T11:43:21;13.13;;;10.02;;
73168;SDS011;61379;59.732;30.468;2022-12-29T11:45:48;13.18;;;11.15;;
73168;SDS011;61379;59.732;30.468;2022-12-29T11:48:17;11.35;;;10.25;;
73168;SDS011;61379;59.732;30.468;2022-12-29T11:50:48;10.73;;;9.82;;
73168;SDS011;61379;59.732;30.468;2022-12-29T11:53:16;11.98;;;10.40;;
73168;SDS011;61379;59.732;30.468;2022-12-29T11:55:50;13.02;;;10.38;;
73168;SDS011;61379;59.732;30.468;2022-12-29T11:58:17;14.85;;;11.25;;
73168;SDS011;61379;59.732;30.468;2022-12-29T12:00:44;10.43;;;9.32;;
73168;SDS011;61379;59.732;30.468;2022-12-29T12:03:13;16.63;;;10.82;;
73168;SDS011;61379;59.732;30.468;2022-12-29T12:05:43;13.75;;;9.52;;
73168;SDS011;61379;59.732;30.468;2022-12-29T12:08:17;12.57;;;9.50;;
73168;SDS011;61379;59.732;30.468;2022-12-29T12:10:44;13.63;;;9.07;;
73168;SDS011;61379;59.732;30.468;2022-12-29T12:13:16;12.05;;;9.30;;
73168;SDS011;61379;59.732;30.468;2022-12-29T12:15:47;17.80;;;10.57;;
73168;SDS011;61379;59.732;30.468;2022-12-29T12:18:16;10.05;;;8.68;;
73168;SDS011;61379;59.732;30.468;2022-12-29T12:20:47;9.52;;;8.55;;
73168;SDS011;61379;59.732;30.468;2022-12-29T12:23:22;10.48;;;9.38;;
73168;SDS011;61379;59.732;30.468;2022-12-29T12:28:19;9.93;;;8.60;;
73168;SDS011;61379;59.732;30.468;2022-12-29T12:30:47;10.40;;;8.75;;
73168;SDS011;61379;59.732;30.468;2022-12-29T12:33:16;11.55;;;9.00;;
73168;SDS011;61379;59.732;30.468;2022-12-29T12:38:15;10.55;;;9.40;;
73168;SDS011;61379;59.732;30.468;2022-12-29T12:40:57;9.65;;;8.75;;
73168;SDS011;61379;59.732;30.468;2022-12-29T12:43:32;11.30;;;8.20;;
73168;SDS011;61379;59.732;30.468;2022-12-29T12:46:05;8.70;;;8.00;;
73168;SDS011;61379;59.732;30.468;2022-12-29T12:48:41;9.32;;;8.00;;
73168;SDS011;61379;59.732;30.468;2022-12-29T12:51:12;11.65;;;8.32;;
73168;SDS011;61379;59.732;30.468;2022-12-29T12:53:46;8.77;;;8.02;;
73168;SDS011;61379;59.732;30.468;2022-12-29T12:56:22;10.25;;;8.57;;
73168;SDS011;61379;59.732;30.468;2022-12-29T12:58:52;8.90;;;8.27;;
73168;SDS011;61379;59.732;30.468;2022-12-29T13:01:24;9.10;;;8.18;;
73168;SDS011;61379;59.732;30.468;2022-12-29T13:04:05;11.07;;;9.90;;
73168;SDS011;61379;59.732;30.468;2022-12-29T13:06:35;9.13;;;8.27;;
73168;SDS011;61379;59.732;30.468;2022-12-29T13:09:15;9.68;;;8.82;;
73168;SDS011;61379;59.732;30.468;2022-12-29T13:11:49;8.95;;;8.10;;
73168;SDS011;61379;59.732;30.468;2022-12-29T13:14:24;9.48;;;8.68;;
73168;SDS011;61379;59.732;30.468;2022-12-29T13:16:53;8.43;;;7.82;;
73168;SDS011;61379;59.732;30.468;2022-12-29T13:19:24;8.95;;;7.63;;
73168;SDS011;61379;59.732;30.468;2022-12-29T13:21:55;9.50;;;8.60;;
73168;SDS011;61379;59.732;30.468;2022-12-29T13:24:26;10.45;;;9.43;;
73168;SDS011;61379;59.732;30.468;2022-12-29T13:26:57;9.98;;;8.02;;
73168;SDS011;61379;59.732;30.468;2022-12-29T13:29:29;8.57;;;7.68;;
73168;SDS011;61379;59.732;30.468;2022-12-29T13:32:01;8.18;;;7.47;;
73168;SDS011;61379;59.732;30.468;2022-12-29T13:34:31;8.70;;;7.93;;
73168;SDS011;61379;59.732;30.468;2022-12-29T13:37:03;8.45;;;7.78;;
73168;SDS011;61379;59.732;30.468;2022-12-29T13:39:33;9.18;;;8.32;;
73168;SDS011;61379;59.732;30.468;2022-12-29T13:42:01;9.40;;;7.55;;
73168;SDS011;61379;59.732;30.468;2022-12-29T13:44:31;8.05;;;7.35;;
73168;SDS011;61379;59.732;30.468;2022-12-29T13:47:01;7.25;;;6.60;;
73168;SDS011;61379;59.732;30.468;2022-12-29T13:49:29;8.48;;;7.68;;
73168;SDS011;61379;59.732;30.468;2022-12-29T13:51:56;9.82;;;7.60;;
73168;SDS011;61379;59.732;30.468;2022-12-29T13:54:26;8.60;;;7.50;;
73168;SDS011;61379;59.732;30.468;2022-12-29T13:56:58;9.63;;;8.20;;
73168;SDS011;61379;59.732;30.468;2022-12-29T13:59:30;8.73;;;8.02;;
73168;SDS011;61379;59.732;30.468;2022-12-29T14:02:09;10.93;;;7.57;;
73168;SDS011;61379;59.732;30.468;2022-12-29T14:04:41;7.78;;;7.07;;
73168;SDS011;61379;59.732;30.468;2022-12-29T14:07:21;8.48;;;7.47;;
73168;SDS011;61379;59.732;30.468;2022-12-29T14:09:48;8.32;;;7.38;;
73168;SDS011;61379;59.732;30.468;2022-12-29T14:12:20;7.70;;;7.05;;
73168;SDS011;61379;59.732;30.468;2022-12-29T14:14:48;7.07;;;6.47;;
73168;SDS011;61379;59.732;30.468;2022-12-29T14:17:16;6.70;;;6.20;;
73168;SDS011;61379;59.732;30.468;2022-12-29T14:19:45;9.60;;;7.60;;
73168;SDS011;61379;59.732;30.468;2022-12-29T14:22:12;9.63;;;7.07;;
73168;SDS011;61379;59.732;30.468;2022-12-29T14:24:41;8.20;;;6.65;;
73168;SDS011;61379;59.732;30.468;2022-12-29T14:29:55;10.73;;;7.10;;
73168;SDS011;61379;59.732;30.468;2022-12-29T14:32:37;6.05;;;5.55;;
73168;SDS011;61379;59.732;30.468;2022-12-29T14:38:03;9.73;;;7.28;;
73168;SDS011;61379;59.732;30.468;2022-12-29T14:40:31;8.38;;;7.70;;
73168;SDS011;61379;59.732;30.468;2022-12-29T14:42:58;7.95;;;6.53;;
73168;SDS011;61379;59.732;30.468;2022-12-29T14:45:27;6.38;;;5.78;;
73168;SDS011;61379;59.732;30.468;2022-12-29T14:47:54;9.55;;;6.85;;
73168;SDS011;61379;59.732;30.468;2022-12-29T14:50:22;7.70;;;6.50;;
73168;SDS011;61379;59.732;30.468;2022-12-29T14:52:50;8.93;;;6.07;;
73168;SDS011;61379;59.732;30.468;2022-12-29T14:55:36;7.13;;;6.43;;
73168;SDS011;61379;59.732;30.468;2022-12-29T14:58:04;8.18;;;6.70;;
73168;SDS011;61379;59.732;30.468;2022-12-29T15:00:33;7.07;;;6.57;;
73168;SDS011;61379;59.732;30.468;2022-12-29T15:03:02;7.50;;;6.72;;
73168;SDS011;61379;59.732;30.468;2022-12-29T15:05:32;7.93;;;7.22;;
73168;SDS011;61379;59.732;30.468;2022-12-29T15:08:00;7.00;;;6.30;;